Time;durP1;ratioP1;P1;durP2;ratioP2;P2;SDS_P1;SDS_P2;PMS_P1;PMS_P2;Temp;Humidity;BMP_temperature;BMP_pressure;BME280_temperature;BME280_humidity;BME280_pressure;Samples;Min_cycle;Max_cycle;Signal;HPM_P1;HPM_P2
2022/05/26 00:00:18;;;;;;;2.60;2.30;;;13.30;99.90;;;;;;4995142;28;20383;-75
2022/05/26 00:02:47;;;;;;;2.20;1.92;;;13.30;99.90;;;;;;4981387;28;20025;-75
2022/05/26 00:05:15;;;;;;;5.93;2.00;;;13.20;99.90;;;;;;5005470;28;20081;-76
2022/05/26 00:07:42;;;;;;;2.25;1.45;;;13.30;99.90;;;;;;4993725;28;20391;-75
2022/05/26 00:10:10;;;;;;;2.75;1.30;;;13.30;99.90;;;;;;5008390;28;20025;-75
2022/05/26 00:12:38;;;;;;;2.30;1.02;;;13.30;99.90;;;;;;4996374;28;20038;-75
2022/05/26 00:15:07;;;;;;;1.58;1.08;;;13.30;99.90;;;;;;5006115;28;20105;-76
2022/05/26 00:17:34;;;;;;;1.80;1.30;;;13.30;99.90;;;;;;5003261;28;20036;-75
2022/05/26 00:20:03;;;;;;;2.03;1.30;;;13.30;99.90;;;;;;4996572;28;20102;-76
2022/05/26 00:22:31;;;;;;;2.67;1.25;;;13.30;99.90;;;;;;4994636;28;20146;-76
2022/05/26 00:24:59;;;;;;;2.55;1.27;;;13.40;99.90;;;;;;4992890;28;20030;-76
2022/05/26 00:27:27;;;;;;;2.33;1.50;;;13.40;99.90;;;;;;4992226;28;20026;-75
2022/05/26 00:29:54;;;;;;;1.80;1.02;;;13.50;99.90;;;;;;4986633;28;20361;-75
2022/05/26 00:32:22;;;;;;;2.65;1.20;;;13.50;99.90;;;;;;4988396;28;20018;-76
2022/05/26 00:34:50;;;;;;;1.75;0.90;;;13.50;99.90;;;;;;4989698;28;20025;-75
2022/05/26 00:37:18;;;;;;;3.05;0.90;;;13.50;99.90;;;;;;4985784;28;20027;-76
2022/05/26 00:39:45;;;;;;;1.52;1.40;;;13.50;99.90;;;;;;4986780;28;20018;-75
2022/05/26 00:42:14;;;;;;;2.92;1.23;;;13.60;99.90;;;;;;4981974;28;20165;-76
2022/05/26 00:44:42;;;;;;;1.15;0.93;;;13.60;99.90;;;;;;5008804;28;20021;-76
2022/05/26 00:47:27;;;;;;;5.15;1.90;;;13.70;99.90;;;;;;4999874;28;20017;-76
2022/05/26 00:50:01;;;;;;;1.43;1.33;;;13.80;99.90;;;;;;4998845;28;20042;-76
2022/05/26 00:52:42;;;;;;;1.95;1.50;;;13.90;99.90;;;;;;5008755;28;20038;-76
2022/05/26 00:55:21;;;;;;;1.90;1.27;;;13.90;99.90;;;;;;4999809;28;20100;-75
2022/05/26 00:57:53;;;;;;;3.40;1.88;;;14.00;99.90;;;;;;4999647;28;20031;-74
2022/05/26 01:00:26;;;;;;;2.22;1.92;;;14.00;99.90;;;;;;4991489;28;20026;-74
2022/05/26 01:03:22;;;;;;;3.03;2.30;;;14.10;99.90;;;;;;4993428;28;20022;-74
2022/05/26 01:06:02;;;;;;;3.38;2.63;;;14.20;99.90;;;;;;4990313;28;20038;-74
2022/05/26 01:08:49;;;;;;;2.70;2.20;;;14.30;99.90;;;;;;4991687;28;20027;-74
2022/05/26 01:11:17;;;;;;;4.28;2.70;;;14.30;99.90;;;;;;4992105;28;20019;-75
2022/05/26 01:13:49;;;;;;;3.03;2.10;;;14.40;99.90;;;;;;4991955;28;20025;-75
2022/05/26 01:16:37;;;;;;;5.28;2.60;;;14.40;99.90;;;;;;4992806;28;20596;-74
2022/05/26 01:19:20;;;;;;;4.05;2.67;;;14.50;99.90;;;;;;4991019;28;20031;-75
2022/05/26 01:22:16;;;;;;;3.25;2.50;;;14.50;99.90;;;;;;4990759;28;20014;-75
2022/05/26 01:25:10;;;;;;;2.90;1.92;;;14.60;99.90;;;;;;4965903;28;20045;-75
2022/05/26 01:27:50;;;;;;;1.92;1.65;;;14.60;99.90;;;;;;4993113;28;20029;-74
2022/05/26 01:30:44;;;;;;;3.92;1.80;;;14.60;99.90;;;;;;4991925;28;20026;-75
2022/05/26 01:33:46;;;;;;;3.03;1.75;;;14.60;99.90;;;;;;4994849;28;20026;-75
2022/05/26 01:36:30;;;;;;;2.78;1.92;;;14.70;99.90;;;;;;4991450;28;20038;-75
2022/05/26 01:39:23;;;;;;;4.97;2.03;;;14.70;99.90;;;;;;4992656;28;20031;-76
2022/05/26 01:42:08;;;;;;;1.42;1.25;;;14.70;99.90;;;;;;4994568;28;20392;-76
2022/05/26 01:44:49;;;;;;;7.82;1.52;;;14.80;99.90;;;;;;4993848;28;20380;-76
2022/05/26 01:47:24;;;;;;;2.05;1.30;;;14.90;99.90;;;;;;4997171;28;20073;-75
2022/05/26 01:50:01;;;;;;;2.20;1.17;;;15.00;99.90;;;;;;4997159;28;20104;-76
2022/05/26 01:52:43;;;;;;;2.05;1.10;;;15.00;99.90;;;;;;4995464;28;20046;-81
2022/05/26 01:55:22;;;;;;;5.78;1.52;;;15.00;99.90;;;;;;4994124;28;20028;-76
2022/05/26 01:58:03;;;;;;;2.25;1.48;;;15.00;99.90;;;;;;4993940;28;20047;-76
2022/05/26 02:00:31;;;;;;;2.17;1.08;;;15.10;99.90;;;;;;4996575;28;20101;-81
2022/05/26 02:03:11;;;;;;;2.60;1.08;;;15.10;99.90;;;;;;4996695;28;20023;-75
2022/05/26 02:05:47;;;;;;;3.92;1.60;;;15.10;99.90;;;;;;4996443;28;20105;-75
2022/05/26 02:08:40;;;;;;;3.83;1.35;;;15.20;99.90;;;;;;4995505;28;20027;-76
2022/05/26 02:11:18;;;;;;;2.05;1.10;;;15.30;99.90;;;;;;4993947;28;20019;-76
2022/05/26 02:14:46;;;;;;;2.38;1.20;;;15.30;99.90;;;;;;4993413;28;20022;-76
2022/05/26 02:17:33;;;;;;;2.35;1.25;;;15.30;99.90;;;;;;4943641;29;20039;-76
2022/05/26 02:20:28;;;;;;;4.20;1.23;;;15.40;99.90;;;;;;4948452;29;20036;-76
2022/05/26 02:23:20;;;;;;;2.95;1.20;;;15.40;99.90;;;;;;4986139;28;20034;-76
2022/05/26 02:25:48;;;;;;;1.35;0.90;;;15.50;99.90;;;;;;4988147;28;20439;-73
2022/05/26 02:28:16;;;;;;;2.13;1.00;;;15.50;99.90;;;;;;4985406;28;20022;-75
2022/05/26 02:30:45;;;;;;;3.67;1.10;;;15.60;99.90;;;;;;4989011;28;20415;-72
2022/05/26 02:33:16;;;;;;;1.10;1.00;;;15.70;99.90;;;;;;5002296;28;20037;-73
2022/05/26 02:35:48;;;;;;;0.88;0.55;;;15.70;99.90;;;;;;5001640;28;20121;-72
2022/05/26 02:38:22;;;;;;;2.17;1.02;;;15.70;99.90;;;;;;5011017;28;20548;-73
2022/05/26 02:40:53;;;;;;;1.83;0.90;;;15.80;99.90;;;;;;4990666;28;20058;-74
2022/05/26 02:43:30;;;;;;;0.85;0.70;;;15.80;99.90;;;;;;4985541;28;20037;-76
2022/05/26 02:46:24;;;;;;;4.85;1.13;;;15.90;99.90;;;;;;4987160;28;20399;-75
2022/05/26 02:49:22;;;;;;;7.20;1.20;;;15.90;99.90;;;;;;4991810;28;20478;-73
2022/05/26 02:52:05;;;;;;;1.58;0.70;;;16.00;99.90;;;;;;4986726;28;20042;-73
2022/05/26 02:54:45;;;;;;;4.07;1.52;;;16.00;99.90;;;;;;4992044;28;20029;-73
2022/05/26 02:57:25;;;;;;;5.80;1.20;;;16.00;99.90;;;;;;4988339;28;20030;-73
2022/05/26 03:00:14;;;;;;;3.38;0.80;;;16.10;99.90;;;;;;4981599;28;20019;-75
2022/05/26 03:02:54;;;;;;;0.95;0.80;;;16.10;99.90;;;;;;4989483;28;20054;-75
2022/05/26 03:05:37;;;;;;;2.17;0.80;;;16.10;99.90;;;;;;4986205;28;20022;-75
2022/05/26 03:08:08;;;;;;;0.70;0.65;;;16.10;99.90;;;;;;4981269;28;20110;-75
2022/05/26 03:10:37;;;;;;;1.67;0.88;;;16.20;99.90;;;;;;4976377;28;20018;-75
2022/05/26 03:13:04;;;;;;;0.98;0.70;;;16.20;99.90;;;;;;4976263;28;20504;-75
2022/05/26 03:15:34;;;;;;;1.58;0.65;;;16.20;99.90;;;;;;4976169;28;20468;-75
2022/05/26 03:18:02;;;;;;;1.65;0.82;;;16.20;99.90;;;;;;4975823;28;20034;-75
2022/05/26 03:20:30;;;;;;;1.95;0.85;;;16.20;99.90;;;;;;4975926;28;20031;-75
2022/05/26 03:22:58;;;;;;;2.63;1.10;;;16.20;99.90;;;;;;4976140;28;20023;-75
2022/05/26 03:25:26;;;;;;;2.30;1.10;;;16.20;99.90;;;;;;4976032;28;20022;-74
2022/05/26 03:27:53;;;;;;;1.60;0.73;;;16.20;99.90;;;;;;4975916;28;20102;-74
2022/05/26 03:30:21;;;;;;;2.45;0.90;;;16.30;99.90;;;;;;4975253;28;20026;-73
2022/05/26 03:32:49;;;;;;;1.60;0.90;;;16.30;99.90;;;;;;4975807;28;20030;-74
2022/05/26 03:40:55;;;;;;;3.03;1.05;;;16.30;99.90;;;;;;4984860;28;19912;-74
2022/05/26 03:43:31;;;;;;;1.10;0.70;;;16.40;99.90;;;;;;4984654;28;20029;-74
2022/05/26 03:46:01;;;;;;;2.38;0.60;;;16.40;99.90;;;;;;4984509;28;20027;-75
2022/05/26 03:48:29;;;;;;;2.25;0.60;;;16.30;99.90;;;;;;4983839;28;20026;-75
2022/05/26 03:50:58;;;;;;;2.80;1.25;;;16.40;99.90;;;;;;4983530;28;20510;-75
2022/05/26 03:53:26;;;;;;;1.40;0.65;;;16.40;99.90;;;;;;4984191;28;20402;-75
2022/05/26 03:55:54;;;;;;;0.68;0.60;;;16.40;99.90;;;;;;4975444;28;20042;-74
2022/05/26 03:58:23;;;;;;;0.80;0.70;;;16.50;99.90;;;;;;4975010;28;20034;-74
2022/05/26 04:01:14;;;;;;;2.50;0.77;;;16.50;99.90;;;;;;4975342;28;20026;-74
2022/05/26 04:03:42;;;;;;;2.38;0.60;;;16.50;99.90;;;;;;4968336;28;20039;-74
2022/05/26 04:06:12;;;;;;;1.67;0.88;;;16.50;99.90;;;;;;4975073;28;20396;-75
2022/05/26 04:08:40;;;;;;;2.97;0.98;;;16.40;99.90;;;;;;4972809;28;20056;-74
2022/05/26 04:11:14;;;;;;;1.30;0.75;;;16.40;99.90;;;;;;4994601;28;20026;-75
2022/05/26 04:13:42;;;;;;;4.82;1.23;;;16.40;99.90;;;;;;4994513;28;20022;-74
2022/05/26 04:16:10;;;;;;;2.20;0.98;;;16.40;99.90;;;;;;4994752;28;20026;-76
2022/05/26 04:18:37;;;;;;;3.72;1.17;;;16.40;99.90;;;;;;4994534;28;20092;-75
2022/05/26 04:21:10;;;;;;;4.13;1.23;;;16.40;99.90;;;;;;4994646;28;20026;-75
2022/05/26 04:23:38;;;;;;;5.28;0.95;;;16.50;99.90;;;;;;4994624;28;20026;-74
2022/05/26 04:26:07;;;;;;;2.65;1.20;;;16.50;99.90;;;;;;4994628;28;20026;-75
2022/05/26 04:28:35;;;;;;;2.33;0.90;;;16.50;99.90;;;;;;4994408;28;20029;-75
2022/05/26 04:31:04;;;;;;;1.42;0.98;;;16.60;99.90;;;;;;4994309;28;20026;-75
2022/05/26 04:33:33;;;;;;;2.08;0.70;;;16.60;99.90;;;;;;4994373;28;20498;-75
2022/05/26 04:36:07;;;;;;;2.08;0.80;;;16.60;99.90;;;;;;4994376;28;20157;-75
2022/05/26 04:38:35;;;;;;;1.65;0.55;;;16.70;99.90;;;;;;4994277;28;20038;-78
2022/05/26 04:41:07;;;;;;;2.08;0.90;;;16.70;99.90;;;;;;4994435;28;20028;-75
2022/05/26 04:43:36;;;;;;;3.53;1.33;;;16.70;99.90;;;;;;4994462;28;20563;-75
2022/05/26 04:46:04;;;;;;;0.93;0.60;;;16.70;99.90;;;;;;4994285;28;20022;-76
2022/05/26 04:48:31;;;;;;;1.42;1.00;;;16.80;99.90;;;;;;4994185;28;20018;-75
2022/05/26 04:50:59;;;;;;;1.45;0.95;;;16.80;99.90;;;;;;4993846;28;20138;-76
2022/05/26 04:53:27;;;;;;;2.83;1.17;;;16.90;99.90;;;;;;4989578;28;20804;-75
2022/05/26 04:55:55;;;;;;;1.52;1.02;;;16.90;99.90;;;;;;4993809;28;20073;-75
2022/05/26 04:58:23;;;;;;;3.28;0.95;;;16.90;99.90;;;;;;4993935;28;20045;-75
2022/05/26 05:00:51;;;;;;;3.53;0.82;;;16.90;99.90;;;;;;4993965;28;20026;-75
2022/05/26 05:03:19;;;;;;;2.85;1.00;;;17.00;99.90;;;;;;4993603;28;20562;-75
2022/05/26 05:05:47;;;;;;;1.40;0.80;;;17.00;99.90;;;;;;4996484;28;20109;-75
2022/05/26 05:08:15;;;;;;;3.78;1.10;;;17.10;99.90;;;;;;5000455;28;20026;-75
2022/05/26 05:10:43;;;;;;;2.35;0.75;;;17.10;99.90;;;;;;4998922;28;20022;-75
2022/05/26 05:13:11;;;;;;;1.65;0.73;;;17.10;99.90;;;;;;5000234;28;20033;-75
2022/05/26 05:15:52;;;;;;;1.55;0.90;;;17.10;99.90;;;;;;5000278;28;20053;-75
2022/05/26 05:18:20;;;;;;;4.72;1.00;;;17.10;99.90;;;;;;4998953;28;20093;-74
2022/05/26 05:20:48;;;;;;;1.60;1.10;;;17.00;99.90;;;;;;5000277;28;20018;-75
2022/05/26 05:23:15;;;;;;;2.33;0.90;;;17.00;99.90;;;;;;4998644;28;20022;-75
2022/05/26 05:25:47;;;;;;;1.60;0.63;;;16.90;99.90;;;;;;5000277;28;20053;-75
2022/05/26 05:28:24;;;;;;;2.63;0.75;;;16.90;99.90;;;;;;5000287;28;20026;-76
2022/05/26 05:31:00;;;;;;;2.40;0.82;;;16.80;99.90;;;;;;4999977;28;20026;-75
2022/05/26 05:33:40;;;;;;;2.67;0.90;;;16.70;99.90;;;;;;5000343;28;20479;-74
2022/05/26 05:36:16;;;;;;;1.73;0.70;;;16.70;99.90;;;;;;4994132;28;20161;-75
2022/05/26 05:38:44;;;;;;;3.42;0.75;;;16.70;99.90;;;;;;4989932;28;20043;-74
2022/05/26 05:41:13;;;;;;;1.50;0.85;;;16.70;99.90;;;;;;4993910;28;20391;-75
2022/05/26 05:43:41;;;;;;;1.05;0.70;;;16.60;99.90;;;;;;4999777;28;20023;-76
2022/05/26 05:46:11;;;;;;;3.65;0.70;;;16.70;99.90;;;;;;4995979;28;20026;-74
2022/05/26 05:48:39;;;;;;;2.63;0.98;;;16.60;99.90;;;;;;4999294;28;20026;-74
2022/05/26 05:51:07;;;;;;;2.00;1.10;;;16.60;99.90;;;;;;4999776;28;20046;-74
2022/05/26 05:53:34;;;;;;;0.98;0.75;;;16.50;99.90;;;;;;5000134;28;20169;-74
2022/05/26 05:56:02;;;;;;;1.33;0.63;;;16.50;99.90;;;;;;4999644;28;20018;-74
2022/05/26 05:58:30;;;;;;;3.75;1.05;;;16.50;99.90;;;;;;4999615;28;20030;-75
2022/05/26 06:00:58;;;;;;;2.97;1.33;;;16.50;99.90;;;;;;4999965;28;20054;-74
2022/05/26 06:03:32;;;;;;;2.08;0.77;;;16.50;99.90;;;;;;4999934;28;20057;-74
2022/05/26 06:06:01;;;;;;;1.05;0.65;;;16.40;99.90;;;;;;4999674;28;20479;-74
2022/05/26 06:08:29;;;;;;;1.40;0.70;;;16.40;99.90;;;;;;4999801;28;20026;-75
2022/05/26 06:10:58;;;;;;;1.95;0.93;;;16.40;99.90;;;;;;4999852;28;20021;-74
2022/05/26 06:13:26;;;;;;;3.22;1.17;;;16.30;99.90;;;;;;4999746;28;20023;-73
2022/05/26 06:15:56;;;;;;;0.95;0.65;;;16.40;99.90;;;;;;4999704;28;20034;-74
2022/05/26 06:18:23;;;;;;;2.35;0.70;;;16.30;99.90;;;;;;4996416;28;20038;-74
2022/05/26 06:20:51;;;;;;;2.55;0.88;;;16.30;99.90;;;;;;4996696;28;20057;-73
2022/05/26 06:23:20;;;;;;;0.75;0.50;;;16.30;99.90;;;;;;4996663;28;20026;-73
2022/05/26 06:25:48;;;;;;;3.78;1.15;;;16.30;99.90;;;;;;4996323;28;20029;-73
2022/05/26 06:31:02;;;;;;;7.45;1.02;;;16.20;99.90;;;;;;4996119;28;20029;-73
2022/05/26 06:39:01;;;;;;;7.65;1.30;;;16.20;99.90;;;;;;4977087;28;20072;-73
2022/05/26 06:44:15;;;;;;;3.70;1.42;;;16.30;99.90;;;;;;4977312;28;20033;-76
2022/05/26 06:46:43;;;;;;;4.93;1.00;;;16.30;99.90;;;;;;4976709;28;20054;-77
2022/05/26 06:49:10;;;;;;;2.38;0.93;;;16.30;99.90;;;;;;4981869;28;20058;-77
2022/05/26 06:51:39;;;;;;;2.20;0.80;;;16.30;99.90;;;;;;4984375;28;20055;-78
2022/05/26 06:54:07;;;;;;;4.05;1.10;;;16.30;99.90;;;;;;4987547;28;20018;-77
2022/05/26 06:56:36;;;;;;;3.55;1.02;;;16.30;99.90;;;;;;4987575;28;20380;-77
2022/05/26 06:59:04;;;;;;;4.50;0.90;;;16.30;99.90;;;;;;5003471;28;20041;-77
2022/05/26 07:01:32;;;;;;;1.83;1.10;;;16.30;99.90;;;;;;4988757;28;20074;-77
2022/05/26 07:03:59;;;;;;;3.55;1.67;;;16.20;99.90;;;;;;4988383;28;20531;-77
2022/05/26 07:06:28;;;;;;;2.45;0.90;;;16.20;99.90;;;;;;4985598;28;20494;-77
2022/05/26 07:08:56;;;;;;;3.83;1.42;;;16.20;99.90;;;;;;4986760;28;20022;-78
2022/05/26 07:11:24;;;;;;;5.43;1.20;;;16.10;99.90;;;;;;4984393;28;20015;-77
2022/05/26 07:13:52;;;;;;;6.10;1.10;;;16.00;99.90;;;;;;4985202;28;20037;-77
2022/05/26 07:16:20;;;;;;;3.00;1.10;;;16.00;99.90;;;;;;4984453;28;20815;-76
2022/05/26 07:18:49;;;;;;;3.13;1.10;;;15.90;99.90;;;;;;4984798;28;20557;-77
2022/05/26 07:21:17;;;;;;;1.60;0.93;;;15.80;99.90;;;;;;4982648;28;20023;-78
2022/05/26 07:23:45;;;;;;;3.15;1.05;;;15.80;99.90;;;;;;4982124;28;20023;-80
2022/05/26 07:26:14;;;;;;;3.70;1.30;;;15.70;99.90;;;;;;4981626;28;20468;-76
2022/05/26 07:28:42;;;;;;;4.07;1.35;;;15.60;99.90;;;;;;4986787;28;20061;-78
2022/05/26 07:31:13;;;;;;;3.47;1.08;;;15.60;99.90;;;;;;4981598;28;20027;-77
2022/05/26 07:33:41;;;;;;;3.88;1.00;;;15.50;99.90;;;;;;4985366;28;20059;-77
2022/05/26 07:41:16;;;;;;;3.22;1.30;;;15.50;99.90;;;;;;4985340;28;20030;-77
2022/05/26 07:41:46;;;;;;;4.70;1.63;;;15.40;99.90;;;;;;4967226;28;20035;-78
2022/05/26 07:44:14;;;;;;;3.63;1.95;;;15.30;99.90;;;;;;4985912;28;20011;-77
2022/05/26 07:46:42;;;;;;;3.00;0.93;;;15.30;99.90;;;;;;4984186;28;20026;-77
2022/05/26 07:49:09;;;;;;;2.33;1.08;;;15.20;99.90;;;;;;4984743;28;20030;-77
2022/05/26 07:51:37;;;;;;;4.93;1.23;;;15.20;99.90;;;;;;4985086;28;20094;-78
2022/05/26 07:54:05;;;;;;;4.63;1.15;;;15.20;99.90;;;;;;4983631;28;20081;-79
2022/05/26 07:56:38;;;;;;;4.93;1.40;;;15.10;99.90;;;;;;4983858;28;20365;-78
2022/05/26 07:59:07;;;;;;;3.10;1.20;;;15.10;99.90;;;;;;4984139;28;20154;-78
2022/05/26 08:01:35;;;;;;;8.48;1.77;;;15.10;99.90;;;;;;4983588;28;20045;-78
2022/05/26 08:04:05;;;;;;;5.28;2.58;;;15.00;99.90;;;;;;4984086;28;20023;-77
2022/05/26 08:06:34;;;;;;;3.85;1.98;;;15.00;99.90;;;;;;4983752;28;20022;-78
2022/05/26 08:09:02;;;;;;;5.78;2.08;;;15.00;99.90;;;;;;4983747;28;20014;-78
2022/05/26 08:11:29;;;;;;;6.10;2.88;;;14.90;99.90;;;;;;4985248;28;20030;-79
2022/05/26 08:13:57;;;;;;;7.90;1.75;;;14.90;99.90;;;;;;4986550;28;20022;-78
2022/05/26 08:16:25;;;;;;;5.07;1.67;;;14.90;99.90;;;;;;4993738;28;20438;-79
2022/05/26 08:18:53;;;;;;;3.67;2.10;;;14.80;99.90;;;;;;4990918;28;20479;-78
2022/05/26 08:21:21;;;;;;;10.00;2.25;;;14.80;99.90;;;;;;4993543;28;20050;-78
2022/05/26 08:23:49;;;;;;;3.97;2.10;;;14.70;99.90;;;;;;4993858;28;20046;-78
2022/05/26 08:26:17;;;;;;;7.15;1.55;;;14.70;99.90;;;;;;4994267;28;20030;-75
2022/05/26 08:28:44;;;;;;;2.88;1.23;;;14.70;99.90;;;;;;4993562;28;20109;-78
2022/05/26 08:31:13;;;;;;;6.00;2.13;;;14.70;99.90;;;;;;4976964;28;20019;-78
2022/05/26 08:33:42;;;;;;;2.17;1.42;;;14.60;99.90;;;;;;4974074;28;20507;-78
2022/05/26 08:36:15;;;;;;;3.17;1.25;;;14.60;99.90;;;;;;4973798;28;20030;-78
2022/05/26 08:38:46;;;;;;;3.60;1.67;;;14.60;99.90;;;;;;4973673;28;20027;-76
2022/05/26 08:41:24;;;;;;;3.83;1.45;;;14.60;99.90;;;;;;4972571;28;20110;-74
2022/05/26 08:44:18;;;;;;;6.20;1.95;;;14.50;99.90;;;;;;4972827;28;20031;-78
2022/05/26 08:46:54;;;;;;;5.13;1.83;;;14.50;99.90;;;;;;4972906;28;20042;-78
2022/05/26 08:49:41;;;;;;;4.47;1.58;;;14.50;99.90;;;;;;4972853;28;20029;-78
2022/05/26 08:52:12;;;;;;;3.75;1.90;;;14.50;99.90;;;;;;4974556;28;20026;-76
2022/05/26 08:54:59;;;;;;;9.90;1.50;;;14.40;99.90;;;;;;4973242;28;20124;-75
2022/05/26 08:57:42;;;;;;;3.60;1.60;;;14.40;99.90;;;;;;4973299;28;20035;-77
2022/05/26 09:00:13;;;;;;;4.40;1.55;;;14.40;99.90;;;;;;4973032;28;20019;-76
2022/05/26 09:02:41;;;;;;;3.72;1.67;;;14.40;99.90;;;;;;4972500;28;20384;-78
2022/05/26 09:05:17;;;;;;;3.75;1.60;;;14.40;99.90;;;;;;4975029;28;20023;-76
2022/05/26 09:13:50;;;;;;;5.70;2.15;;;14.30;99.90;;;;;;4979054;28;20109;-76
2022/05/26 09:16:18;;;;;;;5.50;2.10;;;14.30;99.90;;;;;;4980094;28;20102;-77
2022/05/26 09:19:05;;;;;;;6.85;1.55;;;14.30;99.90;;;;;;4977242;28;20035;-78
2022/05/26 09:21:33;;;;;;;3.47;1.58;;;14.20;99.90;;;;;;4978534;28;20054;-75
2022/05/26 09:24:18;;;;;;;2.35;1.42;;;14.20;99.90;;;;;;4983211;28;20022;-78
2022/05/26 09:26:54;;;;;;;5.65;1.60;;;14.30;99.90;;;;;;4973766;28;20410;-78
2022/05/26 09:29:34;;;;;;;6.82;1.75;;;14.20;99.90;;;;;;4973410;28;20499;-78
2022/05/26 09:32:03;;;;;;;8.45;1.73;;;14.20;99.90;;;;;;4973182;28;20022;-78
2022/05/26 09:34:34;;;;;;;3.83;1.55;;;14.20;99.90;;;;;;4973220;28;20031;-78
2022/05/26 09:37:11;;;;;;;6.28;2.05;;;14.20;99.90;;;;;;4973517;28;20022;-78
2022/05/26 09:39:44;;;;;;;2.05;1.23;;;14.10;99.90;;;;;;4977284;28;20522;-78
2022/05/26 09:42:20;;;;;;;5.90;1.85;;;14.10;99.90;;;;;;4971235;28;20030;-77
2022/05/26 09:45:11;;;;;;;5.35;1.45;;;14.20;99.90;;;;;;4972819;28;20034;-78
2022/05/26 09:47:46;;;;;;;5.57;1.40;;;14.10;99.90;;;;;;4973420;28;20031;-75
2022/05/26 09:50:36;;;;;;;2.83;1.50;;;14.10;99.90;;;;;;4972598;28;20448;-78
2022/05/26 09:53:09;;;;;;;6.05;2.00;;;14.10;99.90;;;;;;4976100;28;20283;-78
2022/05/26 09:55:50;;;;;;;2.40;1.70;;;14.10;99.90;;;;;;4977640;28;20035;-77
2022/05/26 09:58:37;;;;;;;3.53;1.88;;;14.10;99.90;;;;;;4976643;28;20037;-77
2022/05/26 10:01:13;;;;;;;2.22;1.88;;;14.10;99.90;;;;;;4976841;28;20388;-73
2022/05/26 10:03:45;;;;;;;7.97;2.15;;;14.00;99.90;;;;;;4977857;28;20022;-76
2022/05/26 10:06:26;;;;;;;3.45;1.67;;;14.00;99.90;;;;;;4976963;28;20034;-74
2022/05/26 10:09:12;;;;;;;4.80;2.33;;;14.00;99.90;;;;;;4976682;28;20014;-78
2022/05/26 10:12:22;;;;;;;6.22;2.13;;;14.00;99.90;;;;;;4975811;28;20110;-75
2022/05/26 10:15:33;;;;;;;4.00;1.90;;;13.90;99.90;;;;;;4976453;28;20031;-78
2022/05/26 10:18:16;;;;;;;2.75;1.80;;;13.90;99.90;;;;;;4957799;28;20539;-77
2022/05/26 10:20:50;;;;;;;7.25;2.03;;;13.90;99.90;;;;;;4957640;28;20031;-77
2022/05/26 10:23:36;;;;;;;2.67;1.45;;;13.90;99.90;;;;;;4968443;28;20027;-77
2022/05/26 10:26:16;;;;;;;3.67;1.80;;;13.90;99.90;;;;;;4976518;28;20495;-76
2022/05/26 10:29:09;;;;;;;4.80;1.48;;;13.90;99.90;;;;;;4976311;28;20019;-78
2022/05/26 10:32:11;;;;;;;2.65;1.65;;;13.90;99.90;;;;;;4976275;28;20021;-78
2022/05/26 10:34:53;;;;;;;3.65;1.75;;;13.90;99.90;;;;;;4966598;28;20488;-78
2022/05/26 10:37:35;;;;;;;3.28;1.77;;;13.90;99.90;;;;;;4991234;28;20035;-77
2022/05/26 10:40:20;;;;;;;1.88;1.40;;;13.90;99.90;;;;;;4976259;28;20027;-77
2022/05/26 10:42:58;;;;;;;3.70;2.00;;;13.90;99.90;;;;;;4976409;28;20029;-75
2022/05/26 10:45:27;;;;;;;2.38;1.70;;;13.80;99.90;;;;;;4976272;28;20015;-75
2022/05/26 10:48:32;;;;;;;2.53;1.65;;;13.80;99.90;;;;;;4976171;28;20034;-76
2022/05/26 10:51:11;;;;;;;9.32;1.77;;;13.80;99.90;;;;;;4975662;28;20054;-77
2022/05/26 10:54:20;;;;;;;4.65;1.63;;;13.70;99.90;;;;;;4976070;28;20085;-73
2022/05/26 10:57:03;;;;;;;4.40;1.60;;;13.70;99.90;;;;;;4935384;29;20026;-75
2022/05/26 10:59:36;;;;;;;6.30;1.90;;;13.70;99.90;;;;;;4972035;28;20039;-76
2022/05/26 11:02:23;;;;;;;6.28;1.77;;;13.70;99.90;;;;;;4975949;28;20050;-77
2022/05/26 11:05:08;;;;;;;5.25;2.05;;;13.70;99.90;;;;;;4975023;28;20031;-76
2022/05/26 11:07:56;;;;;;;3.45;2.13;;;13.70;99.90;;;;;;4975838;28;20030;-77
2022/05/26 11:10:34;;;;;;;3.38;2.05;;;13.60;99.90;;;;;;4982349;28;20028;-77
2022/05/26 11:13:49;;;;;;;4.07;1.98;;;13.60;99.90;;;;;;4994597;28;20022;-78
2022/05/26 11:19:33;;;;;;;3.28;1.55;;;13.60;99.90;;;;;;4980241;28;20054;-78
2022/05/26 11:22:02;;;;;;;4.15;1.63;;;13.60;99.90;;;;;;4967516;28;20488;-74
2022/05/26 11:24:30;;;;;;;2.65;1.70;;;13.60;99.90;;;;;;4974901;28;20019;-78
2022/05/26 11:27:10;;;;;;;2.22;1.73;;;13.60;99.90;;;;;;4975241;28;20077;-78
2022/05/26 11:29:40;;;;;;;3.78;1.42;;;13.60;99.90;;;;;;4975140;28;20077;-74
2022/05/26 11:38:35;;;;;;;6.13;1.58;;;13.60;99.90;;;;;;4987978;28;20033;-78
2022/05/26 11:41:05;;;;;;;4.22;1.85;;;13.60;99.90;;;;;;4975183;28;20041;-77
2022/05/26 11:43:58;;;;;;;4.07;2.10;;;13.50;99.90;;;;;;4975123;28;20097;-78
2022/05/26 11:46:44;;;;;;;2.83;1.52;;;13.50;99.90;;;;;;4975092;28;20029;-78
2022/05/26 11:49:32;;;;;;;7.50;1.95;;;13.50;99.90;;;;;;4974949;28;20030;-76
2022/05/26 11:52:01;;;;;;;3.55;1.80;;;13.50;99.90;;;;;;4975731;28;20124;-74
2022/05/26 11:55:02;;;;;;;4.38;1.95;;;13.50;99.90;;;;;;4974740;28;20027;-78
2022/05/26 11:57:53;;;;;;;4.60;2.20;;;13.50;99.90;;;;;;4974737;28;20034;-75
2022/05/26 12:00:35;;;;;;;3.03;1.70;;;13.50;99.90;;;;;;4974785;28;20391;-76
2022/05/26 12:03:22;;;;;;;2.47;1.65;;;13.40;99.90;;;;;;4974661;28;20038;-77
2022/05/26 12:06:12;;;;;;;3.53;1.77;;;13.40;99.90;;;;;;4977472;28;20046;-76
2022/05/26 12:08:55;;;;;;;3.95;1.77;;;13.40;99.90;;;;;;4974611;28;20030;-76
2022/05/26 12:11:56;;;;;;;7.03;2.40;;;13.40;99.90;;;;;;4974441;28;20101;-76
2022/05/26 12:14:44;;;;;;;4.15;1.88;;;13.50;99.90;;;;;;4974447;28;20061;-77
2022/05/26 12:17:58;;;;;;;1.85;1.65;;;13.50;99.90;;;;;;4974497;28;20034;-76
2022/05/26 12:20:25;;;;;;;3.03;1.60;;;13.50;99.90;;;;;;4973831;28;20089;-77
2022/05/26 12:22:52;;;;;;;2.95;1.50;;;13.50;99.90;;;;;;4974706;28;20023;-77
2022/05/26 12:25:42;;;;;;;6.25;2.40;;;13.50;99.90;;;;;;4974461;28;20061;-77
2022/05/26 12:28:14;;;;;;;5.90;2.13;;;13.50;99.90;;;;;;4974333;28;20022;-77
2022/05/26 12:30:49;;;;;;;4.60;1.98;;;13.60;99.90;;;;;;4988466;28;20026;-77
2022/05/26 12:33:22;;;;;;;1.98;1.48;;;13.60;99.90;;;;;;4974369;28;20022;-78
2022/05/26 12:36:33;;;;;;;5.97;1.88;;;13.60;99.90;;;;;;4974249;28;20033;-78
2022/05/26 12:39:07;;;;;;;1.88;1.45;;;13.60;99.90;;;;;;4915041;29;20612;-77
2022/05/26 12:41:59;;;;;;;2.53;1.48;;;13.60;99.90;;;;;;4965152;28;20136;-77
2022/05/26 12:44:32;;;;;;;3.40;1.52;;;13.60;99.90;;;;;;4974294;28;20025;-78
2022/05/26 12:47:21;;;;;;;3.05;1.75;;;13.60;99.90;;;;;;4976063;28;20023;-77
2022/05/26 12:49:57;;;;;;;6.57;1.55;;;13.60;99.90;;;;;;4986402;28;20117;-78
2022/05/26 12:52:31;;;;;;;3.65;1.60;;;13.60;99.90;;;;;;4973935;28;20038;-75
2022/05/26 12:55:25;;;;;;;5.18;1.52;;;13.60;99.90;;;;;;4973512;28;20021;-77
2022/05/26 12:58:13;;;;;;;4.75;1.70;;;13.50;99.90;;;;;;4973528;28;20468;-77
2022/05/26 13:00:49;;;;;;;3.08;1.25;;;13.50;99.90;;;;;;4973327;28;20023;-77
2022/05/26 13:03:30;;;;;;;7.22;1.88;;;13.50;99.90;;;;;;4973452;28;20023;-77
2022/05/26 13:06:00;;;;;;;7.68;1.90;;;13.50;99.90;;;;;;4973284;28;20381;-77
2022/05/26 13:08:33;;;;;;;4.55;2.22;;;13.40;99.90;;;;;;4973145;28;20029;-76
2022/05/26 13:11:03;;;;;;;3.35;1.90;;;13.40;99.90;;;;;;4973243;28;20019;-77
2022/05/26 13:13:44;;;;;;;6.80;2.85;;;13.40;99.90;;;;;;4973313;28;20019;-77
2022/05/26 13:16:34;;;;;;;3.90;2.67;;;13.40;99.90;;;;;;4981341;28;20042;-74
2022/05/26 13:19:20;;;;;;;4.63;2.45;;;13.30;99.90;;;;;;4976197;28;20038;-78
2022/05/26 13:21:48;;;;;;;;;;;13.30;99.90;;;;;;4976165;28;20031;-77
2022/05/26 13:24:17;;;;;;;6.97;3.22;;;13.30;99.90;;;;;;4975722;28;19929;-77
2022/05/26 13:26:46;;;;;;;5.90;2.50;;;13.30;99.90;;;;;;4976173;28;20027;-78
2022/05/26 13:29:17;;;;;;;4.85;2.45;;;13.30;99.90;;;;;;4979553;28;20488;-77
2022/05/26 13:34:33;;;;;;;3.40;2.20;;;13.30;99.90;;;;;;4979868;28;20057;-76
2022/05/26 13:37:28;;;;;;;5.53;2.13;;;13.30;99.90;;;;;;4978273;28;20139;-77
2022/05/26 13:40:26;;;;;;;5.30;1.85;;;13.30;99.90;;;;;;4977485;28;20035;-77
2022/05/26 13:42:55;;;;;;;3.63;2.25;;;13.30;99.90;;;;;;4977368;28;20109;-78
2022/05/26 13:45:35;;;;;;;3.72;2.20;;;13.30;99.90;;;;;;4977275;28;20022;-77
2022/05/26 13:48:25;;;;;;;7.28;1.63;;;13.30;99.90;;;;;;4977239;28;20097;-77
2022/05/26 13:50:53;;;;;;;6.18;2.17;;;13.30;99.90;;;;;;4991724;28;20412;-74
2022/05/26 13:53:21;;;;;;;3.45;1.60;;;13.30;99.90;;;;;;4977176;28;20361;-77
2022/05/26 13:55:50;;;;;;;2.53;1.55;;;13.20;99.90;;;;;;4976894;28;20077;-74
2022/05/26 13:58:20;;;;;;;3.10;1.52;;;13.20;99.90;;;;;;4976729;28;20061;-76
2022/05/26 14:00:58;;;;;;;3.28;1.45;;;13.20;99.90;;;;;;4976573;28;20046;-75
2022/05/26 14:03:31;;;;;;;1.92;1.60;;;13.20;99.90;;;;;;4977058;28;20078;-78
2022/05/26 14:06:03;;;;;;;2.25;1.60;;;13.20;99.90;;;;;;4977078;28;20019;-77
2022/05/26 14:08:31;;;;;;;6.88;1.85;;;13.20;99.90;;;;;;4976663;28;20099;-75